Time,TemperatureF,DewpointF,PressureIn,WindDirection,WindDirectionDegrees,WindSpeedMPH,WindSpeedGustMPH,Humidity,HourlyPrecipIn,Conditions,Clouds,dailyrainin,SoftwareType,DateUTC
2013-03-13 00:23:00,39.0,32.0,29.88,NW,304,3.0,9.0,77,0.00,,,0.00,,2013-03-13 04:23:00,
2013-03-13 00:32:00,39.0,32.0,29.88,NW,304,3.0,9.0,77,0.00,,,0.00,,2013-03-13 04:32:00,
2013-03-13 00:43:00,39.0,32.0,29.88,NW,304,3.0,9.0,77,0.00,,,0.00,,2013-03-13 04:43:00,
2013-03-13 00:52:00,39.0,32.0,29.88,NW,304,3.0,9.0,77,0.00,,,0.00,,2013-03-13 04:52:00,
2013-03-13 01:22:00,39.0,32.0,29.90,WSW,249,4.0,10.0,76,0.00,,,0.00,,2013-03-13 05:22:00,
2013-03-13 01:32:00,39.0,32.0,29.90,WSW,249,4.0,10.0,76,0.00,,,0.00,,2013-03-13 05:32:00,
2013-03-13 01:42:00,39.0,32.0,29.90,WSW,249,4.0,10.0,76,0.00,,,0.00,,2013-03-13 05:42:00,
2013-03-13 01:52:00,39.0,32.0,29.90,WSW,249,4.0,10.0,76,0.00,,,0.00,,2013-03-13 05:52:00,
2013-03-13 02:23:00,38.0,30.0,29.89,West,263,3.0,14.0,73,0.00,,,0.00,,2013-03-13 06:23:00,
2013-03-13 02:32:00,38.0,30.0,29.89,West,263,3.0,14.0,73,0.00,,,0.00,,2013-03-13 06:32:00,
2013-03-13 02:42:00,38.0,30.0,29.89,West,263,3.0,14.0,73,0.00,,,0.00,,2013-03-13 06:42:00,
2013-03-13 02:52:00,38.0,30.0,29.89,West,263,3.0,14.0,73,0.00,,,0.00,,2013-03-13 06:52:00,
2013-03-13 03:23:00,37.0,29.0,29.89,WNW,294,0.0,5.0,74,0.00,,,0.00,,2013-03-13 07:23:00,
2013-03-13 03:33:00,37.0,29.0,29.89,WNW,294,0.0,5.0,74,0.00,,,0.00,,2013-03-13 07:33:00,
2013-03-13 03:42:00,37.0,29.0,29.89,WNW,294,0.0,5.0,74,0.00,,,0.00,,2013-03-13 07:42:00,
2013-03-13 03:52:00,37.0,29.0,29.89,WNW,294,0.0,5.0,74,0.00,,,0.00,,2013-03-13 07:52:00,
2013-03-13 04:23:00,36.0,28.0,29.88,West,273,2.0,8.0,72,0.00,,,0.00,,2013-03-13 08:23:00,
2013-03-13 04:33:00,36.0,28.0,29.88,West,273,2.0,8.0,72,0.00,,,0.00,,2013-03-13 08:33:00,
2013-03-13 04:43:00,36.0,28.0,29.88,West,273,2.0,8.0,72,0.00,,,0.00,,2013-03-13 08:43:00,
2013-03-13 04:53:00,36.0,28.0,29.88,West,273,2.0,8.0,72,0.00,,,0.00,,2013-03-13 08:53:00,
2013-03-13 05:23:00,36.0,28.0,29.88,WSW,257,0.0,7.0,73,0.00,,,0.00,,2013-03-13 09:23:00,
2013-03-13 05:32:00,36.0,28.0,29.88,WSW,257,0.0,7.0,73,0.00,,,0.00,,2013-03-13 09:32:00,
2013-03-13 05:42:00,36.0,28.0,29.88,WSW,257,0.0,7.0,73,0.00,,,0.00,,2013-03-13 09:42:00,
2013-03-13 05:52:00,36.0,28.0,29.88,WSW,257,0.0,7.0,73,0.00,,,0.00,,2013-03-13 09:52:00,
2013-03-13 06:22:00,36.0,28.0,29.88,WNW,283,0.0,3.0,73,0.00,,,0.00,,2013-03-13 10:22:00,
2013-03-13 06:32:00,36.0,28.0,29.88,WNW,283,0.0,3.0,73,0.00,,,0.00,,2013-03-13 10:32:00,
2013-03-13 06:42:00,36.0,28.0,29.88,WNW,283,0.0,3.0,73,0.00,,,0.00,,2013-03-13 10:42:00,
2013-03-13 06:52:00,36.0,28.0,29.88,WNW,283,0.0,3.0,73,0.00,,,0.00,,2013-03-13 10:52:00,
2013-03-13 07:23:00,33.0,28.0,29.90,WNW,284,0.0,0.0,80,0.00,,,0.00,,2013-03-13 11:23:00,
2013-03-13 07:32:00,33.0,28.0,29.90,WNW,284,0.0,0.0,80,0.00,,,0.00,,2013-03-13 11:32:00,
2013-03-13 07:42:00,33.0,28.0,29.90,WNW,284,0.0,0.0,80,0.00,,,0.00,,2013-03-13 11:42:00,
2013-03-13 07:52:00,33.0,28.0,29.90,WNW,284,0.0,0.0,80,0.00,,,0.00,,2013-03-13 11:52:00,
2013-03-13 08:22:00,33.0,28.0,29.90,WNW,284,0.0,0.0,82,0.00,,,0.00,,2013-03-13 12:22:00,
2013-03-13 08:32:00,33.0,28.0,29.90,WNW,284,0.0,0.0,82,0.00,,,0.00,,2013-03-13 12:32:00,
2013-03-13 08:42:00,33.0,28.0,29.90,WNW,284,0.0,0.0,82,0.00,,,0.00,,2013-03-13 12:42:00,
2013-03-13 08:52:00,33.0,28.0,29.90,WNW,284,0.0,0.0,82,0.00,,,0.00,,2013-03-13 12:52:00,
2013-03-13 09:22:00,36.0,30.0,29.91,SW,229,0.0,1.0,79,0.00,,,0.00,,2013-03-13 13:22:00,
2013-03-13 09:33:00,36.0,30.0,29.91,SW,229,0.0,1.0,79,0.00,,,0.00,,2013-03-13 13:33:00,
2013-03-13 09:43:00,36.0,30.0,29.91,SW,229,0.0,1.0,79,0.00,,,0.00,,2013-03-13 13:43:00,
2013-03-13 09:52:00,36.0,30.0,29.91,SW,229,0.0,1.0,79,0.00,,,0.00,,2013-03-13 13:52:00,
2013-03-13 10:22:00,39.0,29.0,29.90,SW,236,6.0,11.0,67,0.00,,,0.00,,2013-03-13 14:22:00,
2013-03-13 10:34:00,39.0,29.0,29.90,SW,236,6.0,11.0,67,0.00,,,0.00,,2013-03-13 14:34:00,
2013-03-13 10:42:00,39.0,29.0,29.90,SW,236,6.0,11.0,67,0.00,,,0.00,,2013-03-13 14:42:00,
2013-03-13 10:52:00,39.0,29.0,29.90,SW,236,6.0,11.0,67,0.00,,,0.00,,2013-03-13 14:52:00,
2013-03-13 11:22:00,41.0,30.0,29.89,West,263,4.0,15.0,64,0.00,,,0.00,,2013-03-13 15:22:00,
2013-03-13 11:32:00,41.0,30.0,29.89,West,263,4.0,15.0,64,0.00,,,0.00,,2013-03-13 15:32:00,
2013-03-13 11:43:00,41.0,30.0,29.89,West,263,4.0,15.0,64,0.00,,,0.00,,2013-03-13 15:43:00,
2013-03-13 11:52:00,41.0,30.0,29.89,West,263,4.0,15.0,64,0.00,,,0.00,,2013-03-13 15:52:00,
2013-03-13 12:22:00,42.0,30.0,29.88,West,271,4.0,12.0,62,0.00,,,0.00,,2013-03-13 16:22:00,
2013-03-13 12:32:00,42.0,30.0,29.88,West,271,4.0,12.0,62,0.00,,,0.00,,2013-03-13 16:32:00,
2013-03-13 12:42:00,42.0,30.0,29.88,West,271,4.0,12.0,62,0.00,,,0.00,,2013-03-13 16:42:00,
2013-03-13 12:52:00,42.0,30.0,29.88,West,271,4.0,12.0,62,0.00,,,0.00,,2013-03-13 16:52:00,
2013-03-13 13:23:00,43.0,29.0,29.87,WSW,248,8.0,17.0,58,0.00,,,0.00,,2013-03-13 17:23:00,
2013-03-13 13:33:00,43.0,29.0,29.87,WSW,248,8.0,17.0,58,0.00,,,0.00,,2013-03-13 17:33:00,
2013-03-13 13:42:00,43.0,29.0,29.87,WSW,248,8.0,17.0,58,0.00,,,0.00,,2013-03-13 17:42:00,
2013-03-13 13:53:00,43.0,29.0,29.87,WSW,248,8.0,17.0,58,0.00,,,0.00,,2013-03-13 17:53:00,
2013-03-13 14:22:00,43.0,30.0,29.85,West,270,4.0,12.0,60,0.00,,,0.00,,2013-03-13 18:22:00,
2013-03-13 14:33:00,43.0,30.0,29.85,West,270,4.0,12.0,60,0.00,,,0.00,,2013-03-13 18:33:00,
2013-03-13 14:42:00,43.0,30.0,29.85,West,270,4.0,12.0,60,0.00,,,0.00,,2013-03-13 18:42:00,
2013-03-13 14:52:00,43.0,30.0,29.85,West,270,4.0,12.0,60,0.00,,,0.00,,2013-03-13 18:52:00,
2013-03-13 15:22:00,44.0,31.0,29.83,SSW,213,8.0,13.0,61,0.00,,,0.00,,2013-03-13 19:22:00,
2013-03-13 15:32:00,44.0,31.0,29.83,SSW,213,8.0,13.0,61,0.00,,,0.00,,2013-03-13 19:32:00,
2013-03-13 15:43:00,44.0,31.0,29.83,SSW,213,8.0,13.0,61,0.00,,,0.00,,2013-03-13 19:43:00,
2013-03-13 15:52:00,44.0,31.0,29.83,SSW,213,8.0,13.0,61,0.00,,,0.00,,2013-03-13 19:52:00,
2013-03-13 16:22:00,37.0,32.0,29.84,WNW,288,4.0,14.0,83,0.00,,,0.00,,2013-03-13 20:22:00,
2013-03-13 16:32:00,37.0,32.0,29.84,WNW,288,4.0,14.0,83,0.00,,,0.00,,2013-03-13 20:32:00,
2013-03-13 16:42:00,37.0,32.0,29.84,WNW,288,4.0,14.0,83,0.00,,,0.00,,2013-03-13 20:42:00,
2013-03-13 16:52:00,37.0,32.0,29.84,WNW,288,4.0,14.0,83,0.00,,,0.00,,2013-03-13 20:52:00,
2013-03-13 17:22:00,40.0,32.0,29.84,WSW,241,5.0,12.0,74,0.00,,,0.00,,2013-03-13 21:22:00,
2013-03-13 17:33:00,40.0,32.0,29.84,WSW,241,5.0,12.0,74,0.00,,,0.00,,2013-03-13 21:33:00,
2013-03-13 17:42:00,40.0,32.0,29.84,WSW,241,5.0,12.0,74,0.00,,,0.00,,2013-03-13 21:42:00,
2013-03-13 17:52:00,40.0,32.0,29.84,WSW,241,5.0,12.0,74,0.00,,,0.00,,2013-03-13 21:52:00,
2013-03-13 20:22:00,35.0,29.0,29.90,WNW,293,0.0,6.0,79,0.00,,,0.00,,2013-03-14 00:22:00,
2013-03-13 20:32:00,35.0,29.0,29.90,WNW,293,0.0,6.0,79,0.00,,,0.00,,2013-03-14 00:32:00,
2013-03-13 20:42:00,35.0,29.0,29.90,WNW,293,0.0,6.0,79,0.00,,,0.00,,2013-03-14 00:42:00,
2013-03-13 20:52:00,35.0,29.0,29.90,WNW,293,0.0,6.0,79,0.00,,,0.00,,2013-03-14 00:52:00,
2013-03-13 21:23:00,34.0,26.0,29.90,WNW,288,5.0,13.0,73,0.00,,,0.00,,2013-03-14 01:23:00,
2013-03-13 21:32:00,34.0,26.0,29.90,WNW,288,5.0,13.0,73,0.00,,,0.00,,2013-03-14 01:32:00,
2013-03-13 21:42:00,34.0,26.0,29.90,WNW,288,5.0,13.0,73,0.00,,,0.00,,2013-03-14 01:42:00,
2013-03-13 21:52:00,34.0,26.0,29.90,WNW,288,5.0,13.0,73,0.00,,,0.00,,2013-03-14 01:52:00,
2013-03-13 22:22:00,34.0,26.0,29.93,West,269,3.0,9.0,71,0.00,,,0.00,,2013-03-14 02:22:00,
2013-03-13 22:33:00,34.0,26.0,29.93,West,269,3.0,9.0,71,0.00,,,0.00,,2013-03-14 02:33:00,
2013-03-13 22:42:00,34.0,26.0,29.93,West,269,3.0,9.0,71,0.00,,,0.00,,2013-03-14 02:42:00,
2013-03-13 22:51:00,34.0,26.0,29.93,West,269,3.0,9.0,71,0.00,,,0.00,,2013-03-14 02:51:00,
2013-03-13 23:23:00,32.0,23.0,29.94,West,275,4.0,15.0,69,0.00,,,0.00,,2013-03-14 03:23:00,
2013-03-13 23:33:00,32.0,23.0,29.94,West,275,4.0,15.0,69,0.00,,,0.00,,2013-03-14 03:33:00,
2013-03-13 23:42:00,32.0,23.0,29.94,West,275,4.0,15.0,69,0.00,,,0.00,,2013-03-14 03:42:00,
2013-03-13 23:52:00,32.0,23.0,29.94,West,275,4.0,15.0,69,0.00,,,0.00,,2013-03-14 03:52:00,